Time;durP1;ratioP1;P1;durP2;ratioP2;P2;SDS_P1;SDS_P2;PMS_P1;PMS_P2;Temp;Humidity;BMP_temperature;BMP_pressure;BME280_temperature;BME280_humidity;BME280_pressure;Samples;Min_cycle;Max_cycle;Signal;HPM_P1;HPM_P2
2022/05/26 00:00:52;;;;;;;6.25;2.78;;;;;;;16.56;100.00;97160.19;5153179;27;20051;-60
2022/05/26 00:03:19;;;;;;;7.82;3.30;;;;;;;16.26;100.00;97172.00;5153499;27;20098;-60
2022/05/26 00:05:45;;;;;;;5.03;3.10;;;;;;;16.50;100.00;97156.47;5153078;27;20051;-60
2022/05/26 00:08:11;;;;;;;4.70;2.80;;;;;;;16.50;100.00;97152.94;5153412;27;20111;-60
2022/05/26 00:10:37;;;;;;;3.88;2.92;;;;;;;16.43;100.00;97160.28;5153069;27;20058;-60
2022/05/26 00:13:05;;;;;;;5.93;3.40;;;;;;;15.82;100.00;97155.41;5152990;27;20062;-60
2022/05/26 00:15:32;;;;;;;5.80;2.80;;;;;;;15.95;100.00;97212.16;5153096;27;20142;-60
2022/05/26 00:17:58;;;;;;;3.88;2.65;;;;;;;15.86;100.00;97269.34;5152907;27;20055;-60
2022/05/26 00:20:25;;;;;;;7.45;3.65;;;;;;;15.78;100.00;97415.22;5152759;27;20058;-60
2022/05/26 00:22:51;;;;;;;3.50;2.50;;;;;;;15.76;100.00;97504.09;5152852;27;20059;-60
2022/05/26 00:25:17;;;;;;;6.28;3.03;;;;;;;15.72;100.00;97596.56;5153046;27;20053;-60
2022/05/26 00:27:43;;;;;;;7.18;3.72;;;;;;;15.30;100.00;97834.72;5152810;27;20058;-60
2022/05/26 00:30:11;;;;;;;5.32;3.05;;;;;;;14.84;100.00;98023.31;5153176;27;20046;-60
2022/05/26 00:32:37;;;;;;;5.93;3.15;;;;;;;14.90;100.00;98180.91;5152769;27;20057;-60
2022/05/26 00:35:05;;;;;;;5.78;4.03;;;;;;;14.61;100.00;98235.72;5152900;27;20508;-61
2022/05/26 00:37:32;;;;;;;7.97;3.95;;;;;;;14.59;100.00;98332.66;5152718;27;20050;-60
2022/05/26 00:40:00;;;;;;;5.75;3.88;;;;;;;14.47;100.00;98419.44;5152618;27;20051;-60
2022/05/26 00:42:26;;;;;;;5.55;3.60;;;;;;;14.52;100.00;98468.66;5152601;27;20524;-60
2022/05/26 00:44:53;;;;;;;6.00;4.80;;;;;;;14.33;100.00;98496.78;5152353;27;20079;-60
2022/05/26 00:47:23;;;;;;;10.20;3.75;;;;;;;14.30;100.00;98528.72;5152585;27;20083;-60
2022/05/26 00:49:54;;;;;;;6.25;4.13;;;;;;;14.24;100.00;98546.09;5152619;27;20054;-60
2022/05/26 00:52:24;;;;;;;8.50;3.83;;;;;;;14.12;100.00;98548.09;5152509;27;20055;-60
2022/05/26 00:54:53;;;;;;;10.52;4.30;;;;;;;14.07;100.00;98558.78;5152306;27;20099;-60
2022/05/26 00:57:22;;;;;;;9.52;4.63;;;;;;;14.04;100.00;98557.63;5152439;27;20051;-61
2022/05/26 00:59:55;;;;;;;7.63;4.22;;;;;;;13.89;100.00;98551.41;5151893;27;20058;-61
2022/05/26 01:02:26;;;;;;;7.43;4.33;;;;;;;13.99;100.00;98535.19;5152525;27;20528;-60
2022/05/26 01:04:57;;;;;;;8.45;4.80;;;;;;;13.97;100.00;98523.81;5152187;27;20054;-61
2022/05/26 01:07:26;;;;;;;7.43;6.13;;;;;;;13.95;100.00;98504.13;5152233;27;20062;-61
2022/05/26 01:09:53;;;;;;;11.77;5.18;;;;;;;13.87;100.00;98495.13;5152139;27;20550;-61
2022/05/26 01:12:20;;;;;;;14.77;7.40;;;;;;;13.71;100.00;98489.31;5151957;27;20055;-61
2022/05/26 01:14:49;;;;;;;7.10;4.25;;;;;;;13.70;100.00;98472.03;5152112;27;20501;-61
2022/05/26 01:17:29;;;;;;;7.78;4.45;;;;;;;13.64;100.00;98462.59;5151939;27;20050;-61
2022/05/26 01:20:28;;;;;;;14.20;5.78;;;;;;;13.57;100.00;98429.59;5152183;27;20406;-60
2022/05/26 01:23:29;;;;;;;8.70;5.53;;;;;;;13.65;100.00;98395.31;5118118;27;20065;-61
2022/05/26 01:26:42;;;;;;;11.80;7.88;;;;;;;13.54;100.00;98367.84;5081982;27;20521;-61
2022/05/26 01:29:43;;;;;;;11.70;4.97;;;;;;;13.58;100.00;98341.06;5152069;27;20448;-61
2022/05/26 01:32:16;;;;;;;6.82;4.93;;;;;;;13.63;100.00;98307.59;5151715;27;20055;-61
2022/05/26 01:34:54;;;;;;;12.50;5.95;;;;;;;13.60;100.00;98291.09;5151775;27;20058;-61
2022/05/26 01:37:27;;;;;;;9.07;5.32;;;;;;;13.58;100.00;98272.22;5151963;27;20051;-60
2022/05/26 01:39:58;;;;;;;8.27;6.30;;;;;;;13.55;100.00;98258.47;5151784;27;20063;-61
2022/05/26 01:42:36;;;;;;;21.95;9.07;;;;;;;13.53;100.00;98239.63;5151699;27;20058;-60
2022/05/26 01:45:07;;;;;;;14.23;9.52;;;;;;;13.37;100.00;98237.41;5151847;27;20050;-61
2022/05/26 01:47:42;;;;;;;20.05;6.60;;;;;;;13.44;100.00;98227.50;5151893;27;20054;-60
2022/05/26 01:50:19;;;;;;;16.58;6.20;;;;;;;13.44;100.00;98213.75;5151833;27;20050;-60
2022/05/26 01:52:56;;;;;;;9.68;8.50;;;;;;;13.42;100.00;98206.66;5151706;27;20521;-60
2022/05/26 01:55:28;;;;;;;8.73;6.15;;;;;;;13.37;100.00;98201.59;5151592;27;20065;-60
2022/05/26 01:57:59;;;;;;;16.20;6.85;;;;;;;13.35;100.00;98192.19;5151440;27;20058;-59
2022/05/26 02:00:25;;;;;;;10.77;6.82;;;;;;;13.38;100.00;98181.13;5151450;27;20053;-58
2022/05/26 02:02:56;;;;;;;16.98;6.80;;;;;;;13.33;100.00;98169.81;5151679;27;20051;-58
2022/05/26 02:05:26;;;;;;;14.60;10.55;;;;;;;13.06;100.00;98153.09;5151455;27;20111;-58
2022/05/26 02:07:56;;;;;;;14.88;6.90;;;;;;;13.13;100.00;98139.28;5151365;27;20050;-58
2022/05/26 02:10:27;;;;;;;16.63;6.78;;;;;;;12.98;100.00;98124.84;5152529;27;20054;-59
2022/05/26 02:12:58;;;;;;;11.73;6.10;;;;;;;13.06;100.00;98112.63;5154991;27;20050;-59
2022/05/26 02:15:31;;;;;;;15.55;7.15;;;;;;;12.91;100.00;98103.69;5155133;27;20062;-59
2022/05/26 02:18:02;;;;;;;11.18;6.38;;;;;;;12.92;100.00;98086.00;5155400;27;20089;-59
2022/05/26 02:20:36;;;;;;;16.13;6.82;;;;;;;12.89;100.00;98077.78;5155080;27;20046;-59
2022/05/26 02:23:09;;;;;;;11.38;6.03;;;;;;;12.83;100.00;98071.13;5155324;27;20504;-59
2022/05/26 02:25:35;;;;;;;10.52;9.43;;;;;;;12.75;100.00;98058.66;5155052;27;20062;-59
2022/05/26 02:28:02;;;;;;;17.90;6.35;;;;;;;12.64;100.00;98058.75;5155221;27;20426;-59
2022/05/26 02:30:31;;;;;;;11.38;6.50;;;;;;;12.43;100.00;98045.97;5154965;27;20050;-60
2022/05/26 02:33:00;;;;;;;13.32;7.60;;;;;;;12.43;100.00;98032.22;5154946;27;20051;-59
2022/05/26 02:35:29;;;;;;;11.27;6.07;;;;;;;12.43;100.00;98016.50;5155161;27;20046;-59
2022/05/26 02:37:59;;;;;;;8.85;6.57;;;;;;;12.55;100.00;98017.19;5154752;27;20054;-60
2022/05/26 02:40:25;;;;;;;10.63;7.65;;;;;;;12.68;100.00;98007.25;5154557;27;20065;-59
2022/05/26 02:42:55;;;;;;;19.42;7.45;;;;;;;12.66;100.00;98004.13;5154748;27;20156;-59
2022/05/26 02:45:29;;;;;;;9.27;6.53;;;;;;;12.85;100.00;98013.75;5155022;27;20054;-59
2022/05/26 02:48:03;;;;;;;8.88;6.13;;;;;;;12.53;100.00;98011.31;5154581;27;20062;-59
2022/05/26 02:50:41;;;;;;;13.43;6.28;;;;;;;12.72;100.00;98010.75;5154808;27;20053;-59
2022/05/26 02:53:18;;;;;;;12.88;6.88;;;;;;;12.56;100.00;98005.78;5154508;27;20095;-59
2022/05/26 02:55:56;;;;;;;14.05;7.60;;;;;;;12.70;100.00;98008.41;5154522;27;20505;-59
2022/05/26 02:58:32;;;;;;;14.50;7.07;;;;;;;12.67;100.00;98003.72;5154571;27;20438;-59
2022/05/26 03:01:03;;;;;;;16.83;6.82;;;;;;;12.81;100.00;98007.53;5154500;27;20057;-59
2022/05/26 03:03:35;;;;;;;8.20;6.78;;;;;;;12.58;100.00;98016.38;5154294;27;20050;-59
2022/05/26 03:06:05;;;;;;;12.23;7.03;;;;;;;12.76;100.00;98000.47;5154357;27;20108;-59
2022/05/26 03:08:36;;;;;;;10.30;7.18;;;;;;;12.78;100.00;97998.13;5153984;27;20058;-59
2022/05/26 03:11:07;;;;;;;13.30;7.18;;;;;;;12.86;100.00;98007.06;5154041;27;20535;-59
2022/05/26 03:13:33;;;;;;;12.88;6.63;;;;;;;12.87;100.00;98008.66;5153976;27;20050;-59
2022/05/26 03:15:59;;;;;;;18.25;7.22;;;;;;;12.59;100.00;97996.72;5153987;27;20061;-59
2022/05/26 03:18:26;;;;;;;14.18;7.30;;;;;;;12.57;100.00;97992.81;5153925;27;20058;-59
2022/05/26 03:20:53;;;;;;;12.10;10.27;;;;;;;12.66;100.00;97991.16;5153873;27;20054;-59
2022/05/26 03:23:19;;;;;;;14.27;6.78;;;;;;;12.71;100.00;97989.94;5154021;27;20055;-59
2022/05/26 03:25:45;;;;;;;8.57;7.35;;;;;;;12.59;100.00;97982.97;5153961;27;20524;-59
2022/05/26 03:28:12;;;;;;;9.27;6.03;;;;;;;12.77;100.00;97991.06;5153898;27;20068;-59
2022/05/26 03:30:38;;;;;;;10.13;6.50;;;;;;;12.88;100.00;97988.97;5153868;27;20059;-59
2022/05/26 03:33:05;;;;;;;10.35;6.10;;;;;;;12.68;100.00;97999.00;5153821;27;20047;-59
2022/05/26 03:41:09;;;;;;;9.68;5.90;;;;;;;12.83;100.00;98025.19;5152752;27;20349;-59
2022/05/26 03:43:38;;;;;;;11.10;6.68;;;;;;;12.60;100.00;98016.75;5153689;27;20051;-59
2022/05/26 03:46:05;;;;;;;8.88;5.28;;;;;;;12.74;100.00;98026.84;5153575;27;20055;-59
2022/05/26 03:48:31;;;;;;;9.35;5.40;;;;;;;12.42;100.00;98031.41;5153635;27;20054;-59
2022/05/26 03:50:58;;;;;;;7.68;4.93;;;;;;;12.55;100.00;98028.97;5153739;27;20064;-59
2022/05/26 03:53:25;;;;;;;8.23;5.63;;;;;;;12.57;100.00;98032.09;5153594;27;20137;-59
2022/05/26 03:55:51;;;;;;;7.03;5.13;;;;;;;12.57;100.00;98034.84;5153249;27;20051;-59
2022/05/26 03:58:17;;;;;;;8.30;5.75;;;;;;;12.52;100.00;98039.97;5153399;27;20050;-59
2022/05/26 04:00:44;;;;;;;5.88;4.38;;;;;;;12.59;100.00;98040.69;5153083;27;20472;-59
2022/05/26 04:03:10;;;;;;;10.32;6.05;;;;;;;12.70;100.00;98035.91;5153203;27;20050;-59
2022/05/26 04:05:37;;;;;;;11.35;6.00;;;;;;;12.73;100.00;98045.31;5153460;27;20421;-59
2022/05/26 04:08:03;;;;;;;10.48;5.32;;;;;;;12.65;100.00;98046.56;5153152;27;20047;-59
2022/05/26 04:10:30;;;;;;;6.25;5.07;;;;;;;12.77;100.00;98046.06;5153233;27;20459;-59
2022/05/26 04:12:56;;;;;;;9.18;5.40;;;;;;;12.81;100.00;98057.81;5153067;27;20103;-59
2022/05/26 04:15:23;;;;;;;7.07;5.45;;;;;;;12.89;100.00;98064.78;5153231;27;20051;-59
2022/05/26 04:17:49;;;;;;;8.02;5.25;;;;;;;12.85;100.00;98063.28;5152968;27;20506;-59
2022/05/26 04:20:19;;;;;;;6.35;2.58;;;;;;;12.37;100.00;98061.31;5152954;27;20050;-59
2022/05/26 04:22:46;;;;;;;1.90;1.80;;;;;;;12.41;100.00;98062.84;5152886;27;20429;-60
2022/05/26 04:25:12;;;;;;;3.17;2.38;;;;;;;12.33;100.00;98052.28;5152953;27;20115;-58
2022/05/26 04:27:40;;;;;;;2.10;1.23;;;;;;;12.19;100.00;98072.41;5152866;27;20047;-58
2022/05/26 04:30:09;;;;;;;1.33;0.80;;;;;;;12.28;100.00;98063.72;5152612;27;20051;-58
2022/05/26 04:32:36;;;;;;;0.80;0.80;;;;;;;11.91;100.00;98079.63;5151925;27;20497;-58
2022/05/26 04:35:03;;;;;;;1.40;0.85;;;;;;;12.03;100.00;98092.13;5152638;27;20074;-58
2022/05/26 04:37:30;;;;;;;1.23;0.85;;;;;;;12.01;100.00;98087.03;5152849;27;20046;-58
2022/05/26 04:39:56;;;;;;;0.60;0.60;;;;;;;11.93;100.00;98096.50;5152773;27;20062;-58
2022/05/26 04:42:23;;;;;;;0.75;0.70;;;;;;;11.80;100.00;98105.56;5152717;27;20060;-58
2022/05/26 04:44:50;;;;;;;1.13;0.90;;;;;;;11.88;100.00;98118.88;5152428;27;20050;-58
2022/05/26 04:47:17;;;;;;;1.05;0.80;;;;;;;11.95;100.00;98109.81;5152633;27;20143;-59
2022/05/26 04:49:44;;;;;;;0.98;0.88;;;;;;;12.06;100.00;98118.00;5152435;27;20606;-58
2022/05/26 04:52:12;;;;;;;2.28;0.70;;;;;;;11.88;100.00;98137.31;5152434;27;20063;-58
2022/05/26 04:54:39;;;;;;;1.38;0.80;;;;;;;11.98;100.00;98148.25;5152402;27;20054;-58
2022/05/26 04:57:07;;;;;;;2.00;0.90;;;;;;;12.04;100.00;98143.13;5152160;27;20115;-59
2022/05/26 04:59:34;;;;;;;1.52;0.75;;;;;;;11.91;100.00;98140.06;5152289;27;20050;-58
2022/05/26 05:02:01;;;;;;;0.60;0.60;;;;;;;11.82;100.00;98141.63;5152406;27;20054;-58
2022/05/26 05:04:28;;;;;;;0.60;0.60;;;;;;;11.78;100.00;98152.63;5152148;27;20084;-58
2022/05/26 05:06:55;;;;;;;0.70;0.70;;;;;;;11.66;100.00;98172.25;5151996;27;20058;-58
2022/05/26 05:09:22;;;;;;;0.75;0.75;;;;;;;11.84;100.00;98158.50;5152160;27;20051;-58
2022/05/26 05:11:49;;;;;;;2.17;1.38;;;;;;;11.84;100.00;98164.78;5151824;27;20077;-58
2022/05/26 05:14:16;;;;;;;1.98;0.70;;;;;;;12.10;100.00;98166.28;5151898;27;20057;-54
2022/05/26 05:16:43;;;;;;;2.20;0.90;;;;;;;12.04;100.00;98184.34;5151651;27;20084;-55
2022/05/26 05:19:11;;;;;;;0.88;0.80;;;;;;;11.97;100.00;98198.88;5151867;27;20054;-57
2022/05/26 05:21:42;;;;;;;0.75;0.75;;;;;;;12.13;100.00;98195.69;5151333;27;20054;-54
2022/05/26 05:24:16;;;;;;;1.67;0.90;;;;;;;12.45;100.00;98205.75;5151518;27;20050;-57
2022/05/26 05:26:47;;;;;;;7.32;0.80;;;;;;;12.70;100.00;98233.91;5151623;27;20569;-59
2022/05/26 05:29:16;;;;;;;3.33;0.90;;;;;;;12.57;100.00;98251.25;5151636;27;20112;-59
2022/05/26 05:31:47;;;;;;;2.05;0.82;;;;;;;12.44;100.00;98281.94;5151716;27;20054;-59
2022/05/26 05:34:19;;;;;;;0.60;0.60;;;;;;;12.83;100.00;98314.00;5151646;27;20078;-61
2022/05/26 05:36:45;;;;;;;0.95;0.95;;;;;;;12.81;100.00;98340.31;5151934;27;20098;-60
2022/05/26 05:39:12;;;;;;;0.80;0.80;;;;;;;12.70;100.00;98371.41;5151634;27;20580;-58
2022/05/26 05:41:39;;;;;;;0.80;0.80;;;;;;;12.63;100.00;98401.69;5151532;27;20055;-60
2022/05/26 05:44:06;;;;;;;1.25;0.80;;;;;;;12.67;100.00;98413.44;5151463;27;20054;-59
2022/05/26 05:46:53;;;;;;;3.72;0.77;;;;;;;12.75;100.00;98446.41;5151973;27;20115;-61
2022/05/26 05:49:20;;;;;;;3.95;1.00;;;;;;;12.80;100.00;98459.78;5151348;27;20171;-56
2022/05/26 05:51:47;;;;;;;0.40;0.40;;;;;;;12.72;100.00;98486.50;5151606;27;20050;-58
2022/05/26 05:54:13;;;;;;;4.03;0.73;;;;;;;12.62;100.00;98493.56;5151205;27;20047;-57
2022/05/26 05:56:39;;;;;;;0.60;0.60;;;;;;;12.64;100.00;98498.69;5151282;27;20059;-59
2022/05/26 05:59:05;;;;;;;0.60;0.60;;;;;;;12.64;100.00;98507.72;5151005;27;20054;-59
2022/05/26 06:01:32;;;;;;;1.80;0.70;;;;;;;12.53;100.00;98509.72;5150969;27;20051;-58
2022/05/26 06:03:58;;;;;;;0.73;0.70;;;;;;;12.48;100.00;98512.84;5151328;27;20055;-59
2022/05/26 06:06:25;;;;;;;0.82;0.70;;;;;;;12.44;100.00;98515.59;5150967;27;20046;-59
2022/05/26 06:08:51;;;;;;;0.52;0.52;;;;;;;12.49;100.00;98533.66;5151180;27;20375;-60
2022/05/26 06:11:17;;;;;;;1.70;0.80;;;;;;;12.53;100.00;98536.41;5150907;27;20054;-60
2022/05/26 06:13:44;;;;;;;3.42;0.70;;;;;;;12.48;100.00;98532.09;5150953;27;20055;-58
2022/05/26 06:16:11;;;;;;;2.58;0.98;;;;;;;12.54;100.00;98543.50;5150998;27;20058;-56
2022/05/26 06:18:37;;;;;;;1.20;1.10;;;;;;;12.62;100.00;98562.31;5150871;27;20069;-57
2022/05/26 06:21:07;;;;;;;4.90;1.30;;;;;;;12.68;100.00;98579.22;5150772;27;20062;-59
2022/05/26 06:23:34;;;;;;;4.18;1.15;;;;;;;12.85;100.00;98596.91;5150717;27;20058;-58
2022/05/26 06:26:00;;;;;;;7.70;1.30;;;;;;;13.51;100.00;98633.00;5150668;27;20050;-59
2022/05/26 06:31:11;;;;;;;5.72;0.93;;;;;;;14.12;100.00;98699.72;5151159;27;20053;-59
2022/05/26 06:39:09;;;;;;;5.72;1.10;;;;;;;13.46;100.00;98746.28;5150805;27;20110;-60
2022/05/26 06:44:19;;;;;;;0.80;0.80;;;;;;;13.24;100.00;98745.53;5150853;27;20041;-59
2022/05/26 06:46:46;;;;;;;3.50;1.05;;;;;;;13.15;100.00;98750.59;5150811;27;20621;-58
2022/05/26 06:49:12;;;;;;;1.98;0.90;;;;;;;13.56;100.00;98766.75;5150601;27;20046;-58
2022/05/26 06:51:39;;;;;;;4.93;1.00;;;;;;;14.19;100.00;98783.56;5150479;27;20077;-57
2022/05/26 06:54:05;;;;;;;3.33;0.90;;;;;;;14.65;100.00;98771.63;5150512;27;20410;-61
2022/05/26 06:56:32;;;;;;;3.20;1.00;;;;;;;14.63;100.00;98744.44;5151819;27;20046;-59
2022/05/26 06:58:58;;;;;;;5.97;1.40;;;;;;;14.82;100.00;98735.63;5154368;27;20191;-59
2022/05/26 07:01:26;;;;;;;0.68;0.68;;;;;;;14.75;100.00;98727.41;5153879;27;20429;-60
2022/05/26 07:03:52;;;;;;;1.25;0.88;;;;;;;14.92;100.00;98680.78;5153981;27;20073;-60
2022/05/26 07:06:20;;;;;;;1.35;1.25;;;;;;;14.55;100.00;98647.13;5153974;27;20055;-60
2022/05/26 07:08:47;;;;;;;1.27;1.17;;;;;;;14.30;100.00;98622.44;5153628;27;20051;-60
2022/05/26 07:11:15;;;;;;;2.03;1.23;;;;;;;14.14;100.00;98630.41;5154126;27;20449;-58
2022/05/26 07:13:42;;;;;;;3.38;1.00;;;;;;;15.27;100.00;98605.94;5153879;27;20055;-58
2022/05/26 07:16:10;;;;;;;7.75;1.05;;;;;;;16.76;100.00;98379.47;5153882;27;20054;-54
2022/05/26 07:18:36;;;;;;;8.05;1.30;;;;;;;16.71;100.00;97968.38;5154024;27;20050;-60
2022/05/26 07:21:03;;;;;;;2.05;1.20;;;;;;;16.80;100.00;97987.94;5153631;27;20057;-60
2022/05/26 07:23:30;;;;;;;3.35;1.17;;;;;;;16.65;100.00;97912.78;5154297;27;20537;-59
2022/05/26 07:25:56;;;;;;;1.95;1.10;;;;;;;17.50;100.00;97897.75;5153689;27;20463;-59
2022/05/26 07:28:23;;;;;;;4.72;1.15;;;;;;;18.37;100.00;97652.44;5153684;27;20051;-60
2022/05/26 07:30:52;;;;;;;4.82;1.40;;;;;;;19.00;100.00;97550.47;5153769;27;20442;-59
2022/05/26 07:33:18;;;;;;;4.90;1.15;;;;;;;18.90;100.00;97371.97;5153826;27;20504;-58
2022/05/26 07:35:45;;;;;;;2.05;1.20;;;;;;;19.35;100.00;97383.47;5153690;27;20578;-59
2022/05/26 07:43:42;;;;;;;5.75;1.60;;;;;;;21.01;100.00;97322.03;5153572;27;20099;-59
2022/05/26 07:46:10;;;;;;;4.78;2.13;;;;;;;20.83;100.00;97315.41;5153178;27;20053;-58
2022/05/26 07:48:37;;;;;;;1.02;0.93;;;;;;;21.57;100.00;97318.16;5153164;27;20050;-59
2022/05/26 07:51:03;;;;;;;2.85;0.90;;;;;;;22.01;100.00;97338.81;5153321;27;20050;-57
2022/05/26 07:53:30;;;;;;;3.65;1.58;;;;;;;21.78;100.00;97368.41;5153031;27;20051;-60
2022/05/26 07:55:56;;;;;;;4.20;1.50;;;;;;;20.65;100.00;97344.16;5153459;27;20058;-60
2022/05/26 07:58:22;;;;;;;4.18;2.30;;;;;;;19.53;100.00;97316.72;5152846;27;20055;-62
2022/05/26 08:00:49;;;;;;;4.50;2.28;;;;;;;19.21;100.00;97318.97;5152841;27;20425;-62
2022/05/26 08:03:16;;;;;;;16.45;10.93;;;;;;;19.83;100.00;97319.69;5153031;27;20523;-61
2022/05/26 08:05:42;;;;;;;4.80;1.67;;;;;;;20.67;100.00;97338.91;5153202;27;20058;-61
2022/05/26 08:08:08;;;;;;;7.78;1.55;;;;;;;21.75;100.00;97369.38;5151619;27;20054;-62
2022/05/26 08:10:35;;;;;;;1.90;1.40;;;;;;;20.96;100.00;97415.41;5152952;27;20061;-59
2022/05/26 08:13:02;;;;;;;5.25;2.60;;;;;;;20.90;100.00;97370.72;5152483;27;20066;-59
2022/05/26 08:15:31;;;;;;;5.15;1.70;;;;;;;20.86;100.00;97378.50;5152554;27;20090;-60
2022/05/26 08:17:57;;;;;;;3.67;1.60;;;;;;;21.47;100.00;97444.22;5152848;27;20073;-56
2022/05/26 08:20:24;;;;;;;8.40;2.10;;;;;;;21.98;100.00;97446.56;5152668;27;20066;-56
2022/05/26 08:22:50;;;;;;;8.90;2.63;;;;;;;22.75;100.00;97529.19;5152880;27;20426;-54
2022/05/26 08:25:17;;;;;;;2.28;1.85;;;;;;;22.54;100.00;97561.16;5152509;27;20433;-59
2022/05/26 08:27:43;;;;;;;3.35;2.40;;;;;;;23.22;100.00;97516.09;5153072;27;20047;-57
2022/05/26 08:30:10;;;;;;;7.13;2.60;;;;;;;21.98;100.00;97533.06;5152353;27;20046;-60
2022/05/26 08:32:36;;;;;;;2.97;1.98;;;;;;;21.64;100.00;97519.81;5152594;27;20069;-60
2022/05/26 08:35:06;;;;;;;3.38;2.33;;;;;;;21.29;100.00;97523.94;5152436;27;20050;-59
2022/05/26 08:37:33;;;;;;;9.07;2.05;;;;;;;21.68;100.00;97503.63;5152330;27;20046;-58
2022/05/26 08:39:59;;;;;;;3.55;2.08;;;;;;;20.74;100.00;97468.63;5152293;27;20051;-60
2022/05/26 08:42:28;;;;;;;8.48;1.73;;;;;;;21.11;100.00;97504.56;5152216;27;20051;-53
2022/05/26 08:44:59;;;;;;;3.75;1.77;;;;;;;21.03;100.00;97451.25;5152183;27;20471;-60
2022/05/26 08:47:30;;;;;;;8.85;2.13;;;;;;;21.21;100.00;97491.34;5152292;27;20055;-59
2022/05/26 08:50:01;;;;;;;3.92;2.50;;;;;;;21.00;100.00;97413.19;5152269;27;20102;-61
2022/05/26 08:52:32;;;;;;;5.50;2.35;;;;;;;21.12;100.00;97489.38;5151931;27;20535;-61
2022/05/26 08:55:04;;;;;;;5.55;3.28;;;;;;;22.37;100.00;97485.50;5152428;27;20459;-56
2022/05/26 08:57:36;;;;;;;5.85;4.75;;;;;;;22.66;100.00;97534.13;5151906;27;20050;-60
2022/05/26 09:00:04;;;;;;;7.07;4.43;;;;;;;23.39;100.00;97566.66;5152143;27;20468;-57
2022/05/26 09:02:34;;;;;;;8.98;5.70;;;;;;;23.68;100.00;97618.09;5151753;27;20046;-61
2022/05/26 09:05:03;;;;;;;7.63;4.68;;;;;;;24.27;100.00;97642.13;5152247;27;20058;-59
2022/05/26 09:13:08;;;;;;;6.13;4.40;;;;;;;21.81;100.00;97660.34;5119934;27;20495;-58
2022/05/26 09:15:36;;;;;;;3.85;1.25;;;;;;;21.68;100.00;97629.91;5151692;27;20062;-60
2022/05/26 09:18:11;;;;;;;5.35;2.47;;;;;;;21.96;100.00;97605.34;5152176;27;20399;-60
2022/05/26 09:20:39;;;;;;;5.35;1.90;;;;;;;20.99;100.00;97573.22;5151503;27;20146;-58
2022/05/26 09:23:15;;;;;;;3.25;1.85;;;;;;;20.50;100.00;97577.16;5151861;27;20066;-62
2022/05/26 09:25:47;;;;;;;1.98;1.55;;;;;;;20.98;100.00;97616.25;5151931;27;20057;-62
2022/05/26 09:28:25;;;;;;;2.10;1.67;;;;;;;20.79;100.00;97592.53;5151487;27;20051;-62
2022/05/26 09:30:52;;;;;;;4.28;2.35;;;;;;;21.35;100.00;97641.13;5151863;27;20054;-62
2022/05/26 09:33:26;;;;;;;4.15;2.20;;;;;;;22.05;100.00;97632.38;5151635;27;20059;-62
2022/05/26 09:35:52;;;;;;;1.80;1.15;;;;;;;21.47;100.00;97654.06;5151622;27;20473;-62
2022/05/26 09:38:19;;;;;;;5.68;2.10;;;;;;;21.87;100.00;97601.88;5151327;27;20055;-62
2022/05/26 09:40:47;;;;;;;4.93;2.22;;;;;;;22.70;100.00;97630.47;5151550;27;20051;-62
2022/05/26 09:43:24;;;;;;;3.20;2.00;;;;;;;23.44;100.00;97669.41;5151622;27;20058;-62
2022/05/26 09:45:53;;;;;;;3.85;1.30;;;;;;;23.95;100.00;97718.38;5151478;27;20050;-63
2022/05/26 09:48:25;;;;;;;4.05;1.17;;;;;;;23.69;100.00;97759.50;5151505;27;20167;-62
2022/05/26 09:50:54;;;;;;;3.80;1.13;;;;;;;23.01;100.00;97716.56;5151523;27;20051;-62
2022/05/26 09:53:33;;;;;;;4.32;1.90;;;;;;;22.75;100.00;97623.41;5151641;27;20051;-62
2022/05/26 09:56:00;;;;;;;4.47;1.73;;;;;;;22.56;100.00;97639.63;5151495;27;20050;-62
2022/05/26 09:58:29;;;;;;;2.80;1.50;;;;;;;21.99;100.00;97637.06;5151383;27;20083;-62
2022/05/26 10:00:57;;;;;;;2.55;1.40;;;;;;;21.07;100.00;97673.94;5151023;27;20063;-62
2022/05/26 10:03:33;;;;;;;2.42;1.30;;;;;;;21.72;100.00;97671.56;5150992;27;20051;-62
2022/05/26 10:06:18;;;;;;;6.03;1.30;;;;;;;21.14;100.00;97720.97;5151130;27;20050;-62
2022/05/26 10:08:55;;;;;;;4.20;1.42;;;;;;;21.05;100.00;97693.16;5151232;27;20063;-62
2022/05/26 10:11:34;;;;;;;4.60;1.58;;;;;;;20.75;100.00;97665.09;5151417;27;20063;-62
2022/05/26 10:14:13;;;;;;;6.53;1.55;;;;;;;20.44;100.00;97623.56;5150809;27;20088;-62
2022/05/26 10:16:47;;;;;;;4.03;1.35;;;;;;;20.34;100.00;97533.78;5151262;27;20054;-62
2022/05/26 10:19:27;;;;;;;4.75;2.20;;;;;;;20.91;100.00;97508.75;5151260;27;20572;-62
2022/05/26 10:22:08;;;;;;;3.63;1.92;;;;;;;21.19;100.00;97553.13;5150794;27;20054;-62
2022/05/26 10:24:53;;;;;;;5.10;1.45;;;;;;;20.32;100.00;97580.78;5151118;27;20054;-62
2022/05/26 10:27:36;;;;;;;4.90;1.40;;;;;;;20.15;100.00;97540.66;5150759;27;20467;-62
2022/05/26 10:30:18;;;;;;;9.18;1.60;;;;;;;20.05;100.00;97492.63;5151184;27;20054;-62
2022/05/26 10:32:54;;;;;;;8.23;1.35;;;;;;;19.68;100.00;97553.88;5154014;27;20054;-62
2022/05/26 10:35:25;;;;;;;3.58;1.90;;;;;;;20.13;100.00;97598.78;5154588;27;20054;-62
2022/05/26 10:38:23;;;;;;;4.20;1.20;;;;;;;20.68;100.00;97574.31;5154580;27;20050;-62
2022/05/26 10:40:56;;;;;;;1.65;1.00;;;;;;;20.97;100.00;97639.78;5154215;27;20054;-63
2022/05/26 10:43:28;;;;;;;4.05;0.90;;;;;;;21.06;100.00;97648.09;5154401;27;20054;-63
2022/05/26 10:45:57;;;;;;;4.00;1.90;;;;;;;21.35;100.00;97672.56;5154271;27;20189;-63
2022/05/26 10:48:32;;;;;;;6.28;2.08;;;;;;;21.54;100.00;97655.72;5154364;27;20138;-63
2022/05/26 10:51:05;;;;;;;3.28;1.05;;;;;;;21.49;100.00;97712.94;5154586;27;20058;-63
2022/05/26 10:53:36;;;;;;;4.15;1.20;;;;;;;21.19;100.00;97702.81;5154501;27;20095;-63
2022/05/26 10:56:12;;;;;;;5.55;1.20;;;;;;;20.14;100.00;97665.06;5154715;27;20095;-63
2022/05/26 10:58:43;;;;;;;2.35;1.20;;;;;;;19.83;100.00;97629.09;5154210;27;20051;-63
2022/05/26 11:01:16;;;;;;;5.43;1.55;;;;;;;20.29;100.00;97578.94;5154243;27;20047;-63
2022/05/26 11:03:48;;;;;;;15.50;5.15;;;;;;;20.24;100.00;97578.81;5154136;27;20421;-63
2022/05/26 11:06:23;;;;;;;2.85;1.20;;;;;;;20.48;100.00;97556.59;5153975;27;20420;-63
2022/05/26 11:08:54;;;;;;;2.17;0.95;;;;;;;20.23;100.00;97591.94;5154194;27;20051;-63
2022/05/26 11:11:26;;;;;;;2.60;1.40;;;;;;;20.06;100.00;97558.16;5154349;27;20547;-62
2022/05/26 11:13:57;;;;;;;6.07;1.70;;;;;;;19.93;100.00;97526.97;5154220;27;20050;-63
2022/05/26 11:19:32;;;;;;;4.47;1.05;;;;;;;20.43;100.00;97614.47;5154278;27;20050;-61
2022/05/26 11:22:00;;;;;;;1.42;1.00;;;;;;;20.26;100.00;97606.91;5153705;27;20127;-61
2022/05/26 11:24:26;;;;;;;8.40;1.85;;;;;;;20.24;100.00;97651.16;5153617;27;20523;-61
2022/05/26 11:26:57;;;;;;;5.32;1.50;;;;;;;19.98;100.00;97677.28;5153563;27;20058;-61
2022/05/26 11:29:27;;;;;;;4.63;1.95;;;;;;;20.43;100.00;97694.41;5153807;27;20050;-62
2022/05/26 11:37:58;;;;;;;4.30;1.60;;;;;;;21.29;100.00;97712.69;5153448;27;20147;-62
2022/05/26 11:40:30;;;;;;;;;;;;;;;21.55;100.00;97704.66;5154171;27;20404;-62
2022/05/26 11:42:58;;;;;;;6.47;1.27;;;;;;;21.48;100.00;97708.59;5153192;27;20017;-61
2022/05/26 11:45:29;;;;;;;11.05;1.60;;;;;;;20.84;100.00;97742.28;5153531;27;20050;-63
2022/05/26 11:47:58;;;;;;;3.92;1.00;;;;;;;21.06;100.00;97776.28;5153214;27;20054;-63
2022/05/26 11:50:31;;;;;;;3.92;2.30;;;;;;;20.83;100.00;97707.34;5153266;27;20184;-63
2022/05/26 11:53:13;;;;;;;2.75;1.75;;;;;;;21.05;100.00;97757.22;5152967;27;20059;-62
2022/05/26 11:55:48;;;;;;;3.72;1.05;;;;;;;20.98;100.00;97738.84;5153365;27;20502;-63
2022/05/26 11:58:29;;;;;;;8.02;1.20;;;;;;;20.56;100.00;97727.66;5153367;27;20066;-63
2022/05/26 12:01:15;;;;;;;4.40;1.92;;;;;;;20.64;100.00;97710.16;5152973;27;20514;-61
2022/05/26 12:04:06;;;;;;;3.58;1.20;;;;;;;20.38;100.00;97720.06;5153134;27;20145;-62
2022/05/26 12:06:34;;;;;;;4.90;1.48;;;;;;;20.30;100.00;97683.44;5140643;27;20084;-62
2022/05/26 12:09:03;;;;;;;2.58;1.10;;;;;;;20.19;100.00;97664.47;5152872;27;20410;-62
2022/05/26 12:11:52;;;;;;;8.52;1.48;;;;;;;20.16;100.00;97597.84;5153020;27;20062;-63
2022/05/26 12:14:22;;;;;;;2.25;1.35;;;;;;;20.19;100.00;97591.31;5152795;27;20505;-62